首页
METAR-TAF:

METAR-TAF

机场 :

阿比林, 得克萨斯州, 美国

纬度: 32-24-37N, 经度: 099-40-54W, 海拔: 545米

当前天气观测

该预报发布于1小时和7分钟前的00:52 UTC
风速6节,风向西转西南
温度 14°C
湿度 72%
气压 1010 hPa
能見度: 16.1公里
少量云层高于9000英尺

METAR: KABI 230052Z 24006KT 10SM FEW090 14/09 A2982 RMK AO2 SLP089 T01440094

时间: 19:59 (01:59 UTC)

预报

该预报发布于2小时和36分钟前的23:23 UTC
预报有效从23日的 00点(UTC)到 23日的 24点(UTC)
风速11节,风向
能見度: 10公里
多云层高于8000英尺
从 23日的 0400点(UTC)
风速10节,风向西北
能見度: 10公里
散云层高于25000英尺
从 23日的 1600点(UTC)
风速11节,风向
能見度: 10公里
少量云层高于25000英尺

TAF: KABI 222323Z 2300/2324 17011KT P6SM BKN080 FM230400 31010KT P6SM SCT250 FM231600 36011KT P6SM FEW250

超过4000个机场的气象观测和天气预报(METAR&TAF报告)。

可查询的气象台以黄色和红色小点在地图上表示。

将鼠标移到小点上方,可查看气象台名称。

然后点击查看天气观测和预报。

如需切换地图:点击带黑十字的绿色按钮放大地图;点击带横线的绿色按钮缩小地图;或者点击绿色箭头查看邻近地区的地图。


METAR-TAF: